Time;durP1;ratioP1;P1;durP2;ratioP2;P2;SDS_P1;SDS_P2;PMS_P1;PMS_P2;Temp;Humidity;BMP_temperature;BMP_pressure;BME280_temperature;BME280_humidity;BME280_pressure;Samples;Min_cycle;Max_cycle;Signal;HPM_P1;HPM_P2
2020/12/30 00:01:14;;;;;;;3.60;2.88;;;16.80;49.80;;;;;;5868382;24;20162;-83
2020/12/30 00:04:30;;;;;;;4.07;2.97;;;16.80;49.80;;;;;;5885709;24;20261;-84
2020/12/30 00:07:18;;;;;;;3.47;3.10;;;16.80;49.80;;;;;;5883952;24;20203;-84
2020/12/30 00:09:57;;;;;;;3.47;3.03;;;16.80;49.80;;;;;;5863933;24;20568;-84
2020/12/30 00:19:37;;;;;;;3.97;2.67;;;16.80;49.80;;;;;;5832407;24;20209;-84
2020/12/30 00:22:11;;;;;;;3.72;2.90;;;16.80;49.80;;;;;;5810856;24;20187;-84
2020/12/30 00:24:57;;;;;;;3.40;3.03;;;16.80;49.80;;;;;;5876087;23;20158;-83
2020/12/30 00:27:27;;;;;;;3.42;2.90;;;16.70;49.80;;;;;;5955155;23;20155;-84
2020/12/30 00:30:00;;;;;;;3.15;2.83;;;16.80;49.80;;;;;;6000662;23;20161;-84
2020/12/30 00:32:36;;;;;;;3.63;3.05;;;16.90;49.80;;;;;;6000475;23;20139;-84
2020/12/30 00:35:07;;;;;;;3.67;2.92;;;16.80;49.70;;;;;;5977581;23;20196;-84
2020/12/30 00:37:49;;;;;;;3.50;3.05;;;16.80;49.80;;;;;;6001194;23;20246;-84
2020/12/30 00:40:55;;;;;;;3.83;2.90;;;16.80;49.80;;;;;;5977981;23;20162;-84
2020/12/30 00:43:27;;;;;;;3.70;2.92;;;16.80;49.80;;;;;;5980525;23;20190;-84
2020/12/30 00:46:28;;;;;;;3.08;2.78;;;16.80;49.80;;;;;;6023823;23;20203;-84
2020/12/30 00:48:58;;;;;;;3.90;3.00;;;16.80;49.80;;;;;;5983227;23;20219;-84
2020/12/30 00:51:33;;;;;;;3.22;2.83;;;16.80;49.80;;;;;;5977894;23;20571;-83
2020/12/30 00:54:15;;;;;;;3.60;3.05;;;16.80;49.80;;;;;;5954587;23;20154;-83
2020/12/30 00:56:42;;;;;;;3.35;3.05;;;16.80;49.80;;;;;;6053433;23;20198;-83
2020/12/30 00:59:18;;;;;;;4.07;3.20;;;16.80;49.90;;;;;;6067935;23;20144;-83
2020/12/30 01:02:00;;;;;;;3.50;2.95;;;16.80;49.90;;;;;;6093195;23;20167;-84
2020/12/30 01:04:43;;;;;;;3.53;3.13;;;16.80;49.80;;;;;;6067988;23;20147;-83
2020/12/30 01:07:17;;;;;;;3.08;2.67;;;16.80;49.90;;;;;;6116748;23;20186;-83
2020/12/30 01:10:16;;;;;;;3.97;2.95;;;16.80;49.90;;;;;;6117364;23;20127;-84
2020/12/30 01:13:07;;;;;;;3.63;3.08;;;16.80;49.80;;;;;;6096673;23;20183;-83
2020/12/30 01:16:07;;;;;;;3.20;2.90;;;16.80;49.80;;;;;;6071375;23;20200;-83
2020/12/30 01:19:08;;;;;;;3.53;3.00;;;16.80;49.80;;;;;;6096996;23;20554;-82
2020/12/30 01:22:15;;;;;;;3.67;2.67;;;16.90;49.90;;;;;;5976950;23;20173;-83
2020/12/30 01:24:47;;;;;;;3.53;3.08;;;16.70;49.80;;;;;;6023272;23;20150;-83
2020/12/30 01:27:22;;;;;;;3.50;2.90;;;16.80;49.80;;;;;;6000038;23;20147;-83
2020/12/30 01:30:02;;;;;;;3.33;2.75;;;16.80;49.80;;;;;;6000980;23;20166;-83
2020/12/30 01:32:40;;;;;;;3.22;2.90;;;16.90;49.80;;;;;;5999059;23;20167;-83
2020/12/30 01:35:23;;;;;;;3.20;2.67;;;16.90;49.80;;;;;;5976651;23;20143;-83
2020/12/30 01:38:20;;;;;;;3.40;2.97;;;16.80;50.50;;;;;;6001361;23;20158;-83
2020/12/30 01:41:23;;;;;;;3.53;2.97;;;16.80;49.80;;;;;;6002179;23;20159;-83
2020/12/30 01:44:16;;;;;;;3.35;2.83;;;16.80;49.90;;;;;;5982155;23;20707;-83
2020/12/30 01:46:54;;;;;;;3.10;2.80;;;16.80;49.90;;;;;;6000135;23;20230;-83
2020/12/30 01:49:39;;;;;;;3.67;3.00;;;16.80;49.80;;;;;;5999720;23;20163;-83
2020/12/30 01:52:09;;;;;;;3.28;2.72;;;16.80;49.80;;;;;;5999829;23;20619;-83
2020/12/30 01:58:10;;;;;;;3.00;2.65;;;16.70;49.80;;;;;;6006138;23;20174;-82
2020/12/30 02:04:15;;;;;;;3.30;2.80;;;16.80;49.90;;;;;;6052432;23;20212;-83
2020/12/30 02:06:45;;;;;;;4.28;3.30;;;16.80;49.90;;;;;;6028271;23;20151;-83
2020/12/30 02:09:19;;;;;;;3.70;2.92;;;16.80;49.90;;;;;;6028139;23;20166;-83
2020/12/30 02:12:12;;;;;;;3.20;2.90;;;16.70;50.00;;;;;;6022454;23;20153;-83
2020/12/30 02:15:21;;;;;;;3.42;3.10;;;16.80;49.90;;;;;;6028408;23;20185;-83
2020/12/30 02:18:11;;;;;;;3.40;2.83;;;16.70;50.30;;;;;;6014086;23;20153;-82
2020/12/30 02:20:39;;;;;;;3.95;3.10;;;16.80;50.00;;;;;;6027730;23;20213;-82
2020/12/30 02:23:19;;;;;;;3.03;2.65;;;16.70;50.00;;;;;;6003873;23;20177;-82
2020/12/30 02:26:14;;;;;;;3.58;3.00;;;16.70;50.00;;;;;;6027499;23;20158;-83
2020/12/30 02:29:38;;;;;;;3.83;2.65;;;16.70;50.00;;;;;;6005393;23;20150;-84
2020/12/30 02:32:06;;;;;;;3.25;2.88;;;16.80;49.90;;;;;;6046069;23;20158;-83
2020/12/30 02:34:41;;;;;;;3.20;2.75;;;16.80;49.90;;;;;;6074908;23;20152;-83
2020/12/30 02:37:22;;;;;;;3.42;3.13;;;16.80;50.00;;;;;;6116292;23;20139;-83
2020/12/30 02:40:12;;;;;;;3.65;2.83;;;16.80;50.00;;;;;;6091386;23;20171;-83
2020/12/30 02:42:54;;;;;;;3.65;3.08;;;16.80;49.90;;;;;;6115178;23;20235;-83
2020/12/30 02:45:28;;;;;;;4.70;3.30;;;16.80;50.10;;;;;;6140247;23;20132;-82
2020/12/30 02:51:17;;;;;;;3.72;2.90;;;16.80;49.90;;;;;;6017278;23;20218;-83
2020/12/30 02:54:32;;;;;;;3.25;2.95;;;16.70;50.00;;;;;;6006197;23;20162;-82
2020/12/30 02:57:27;;;;;;;4.05;2.92;;;16.70;50.60;;;;;;5913504;24;20193;-82
2020/12/30 02:59:58;;;;;;;3.28;2.72;;;16.80;50.10;;;;;;5911366;24;20158;-82
2020/12/30 03:02:56;;;;;;;3.28;2.83;;;16.70;50.10;;;;;;5913380;24;20770;-82
2020/12/30 03:05:37;;;;;;;3.38;2.63;;;16.70;50.10;;;;;;5913329;24;20153;-82
2020/12/30 03:08:28;;;;;;;3.38;2.80;;;16.70;50.10;;;;;;5891616;24;20161;-83
2020/12/30 03:11:00;;;;;;;3.17;2.72;;;16.70;50.10;;;;;;5913750;24;20232;-82
2020/12/30 03:14:00;;;;;;;3.13;2.83;;;16.70;50.00;;;;;;5914108;24;20531;-83
2020/12/30 03:17:09;;;;;;;3.20;2.80;;;16.80;50.00;;;;;;5913402;24;20145;-83
2020/12/30 03:20:05;;;;;;;;;;;;;;;;;;;;;
2020/12/30 03:22:50;;;;;;;3.35;2.67;;;16.80;50.00;;;;;;5911959;24;20205;-83
2020/12/30 03:25:39;;;;;;;3.72;3.05;;;16.80;50.00;;;;;;5913071;24;20187;-83
2020/12/30 03:28:32;;;;;;;3.03;2.72;;;16.80;50.00;;;;;;5923988;24;20166;-83
2020/12/30 03:31:37;;;;;;;2.92;2.67;;;16.70;50.10;;;;;;5863732;24;20161;-83
2020/12/30 03:34:26;;;;;;;3.03;2.72;;;16.70;50.10;;;;;;5927103;24;20160;-83
2020/12/30 03:37:23;;;;;;;3.88;3.25;;;16.70;50.20;;;;;;5945754;24;20147;-83
2020/12/30 03:40:01;;;;;;;3.20;2.78;;;16.70;50.10;;;;;;5946154;24;20160;-83
2020/12/30 03:42:34;;;;;;;3.67;3.05;;;16.70;50.10;;;;;;5922573;24;20187;-83
2020/12/30 03:45:02;;;;;;;3.22;2.90;;;16.70;50.10;;;;;;5922814;24;20148;-83
2020/12/30 03:47:34;;;;;;;4.80;3.35;;;16.70;50.00;;;;;;5945586;24;20182;-83
2020/12/30 03:50:12;;;;;;;4.55;3.15;;;16.70;50.10;;;;;;5942546;24;20192;-83
2020/12/30 03:52:44;;;;;;;3.60;2.88;;;16.70;50.10;;;;;;5923881;24;20163;-83
2020/12/30 03:55:27;;;;;;;3.03;2.70;;;16.70;50.10;;;;;;5945557;24;20215;-83
2020/12/30 03:58:06;;;;;;;3.53;2.80;;;16.70;50.20;;;;;;5945383;24;20156;-83
2020/12/30 04:01:19;;;;;;;3.67;2.95;;;16.70;50.10;;;;;;5922715;24;20345;-83
2020/12/30 04:04:02;;;;;;;3.05;2.75;;;16.70;50.10;;;;;;5945197;24;20244;-83
2020/12/30 04:06:52;;;;;;;3.17;2.63;;;16.70;50.30;;;;;;5920141;24;20156;-83
2020/12/30 04:09:22;;;;;;;3.53;2.80;;;16.70;50.20;;;;;;6092206;23;20234;-83
2020/12/30 04:11:54;;;;;;;3.67;3.00;;;16.70;50.10;;;;;;6092429;23;20151;-83
2020/12/30 04:14:25;;;;;;;3.42;2.85;;;16.70;50.10;;;;;;6116207;23;20140;-83
2020/12/30 04:17:16;;;;;;;3.58;2.72;;;16.70;50.10;;;;;;6092733;23;20140;-83
2020/12/30 04:20:02;;;;;;;3.45;2.95;;;16.70;50.10;;;;;;6115759;23;20139;-84
2020/12/30 04:22:40;;;;;;;3.10;2.80;;;16.70;50.10;;;;;;6092008;23;20224;-83
2020/12/30 04:26:13;;;;;;;3.33;2.80;;;16.70;50.10;;;;;;6068574;23;20545;-83
2020/12/30 04:28:44;;;;;;;3.45;2.83;;;16.70;50.10;;;;;;6023679;23;20169;-83
2020/12/30 04:31:10;;;;;;;3.90;2.90;;;16.70;50.00;;;;;;5977422;23;20175;-82
2020/12/30 04:33:52;;;;;;;4.15;2.85;;;16.70;50.00;;;;;;5984117;23;20183;-82
2020/12/30 04:36:48;;;;;;;3.10;2.80;;;16.80;50.00;;;;;;6001766;23;20202;-83
2020/12/30 04:39:57;;;;;;;3.30;2.85;;;16.80;50.10;;;;;;6001076;23;20165;-83
2020/12/30 04:42:42;;;;;;;3.83;2.78;;;16.70;50.10;;;;;;5978511;23;20185;-83
2020/12/30 04:45:24;;;;;;;3.03;2.58;;;16.70;50.20;;;;;;6024595;23;20146;-85
2020/12/30 04:47:55;;;;;;;3.28;2.97;;;16.70;50.20;;;;;;6000349;23;20149;-83
2020/12/30 04:50:50;;;;;;;2.80;2.55;;;16.70;50.20;;;;;;5977400;23;20147;-83
2020/12/30 04:53:52;;;;;;;3.15;2.85;;;16.80;50.10;;;;;;5977164;23;20222;-84
2020/12/30 04:56:41;;;;;;;3.25;2.85;;;16.70;50.10;;;;;;6023839;23;20247;-84
2020/12/30 04:59:45;;;;;;;4.20;2.63;;;16.70;50.10;;;;;;6013158;23;20174;-84
2020/12/30 05:02:32;;;;;;;2.88;2.40;;;16.70;50.00;;;;;;6000404;23;20150;-83
2020/12/30 05:05:04;;;;;;;3.08;2.47;;;16.70;49.90;;;;;;5988825;23;20172;-84
2020/12/30 05:07:59;;;;;;;3.35;2.65;;;16.70;49.80;;;;;;6063850;23;20133;-83
2020/12/30 05:10:32;;;;;;;3.55;2.97;;;16.70;50.00;;;;;;6063897;23;20159;-84
2020/12/30 05:13:08;;;;;;;3.40;2.83;;;16.80;49.80;;;;;;6062913;23;20172;-84
2020/12/30 05:15:50;;;;;;;3.40;2.97;;;16.80;49.80;;;;;;6039766;23;20585;-83
2020/12/30 05:19:03;;;;;;;3.60;2.60;;;16.70;49.90;;;;;;6063362;23;20183;-83
2020/12/30 05:21:34;;;;;;;2.83;2.42;;;16.80;49.80;;;;;;6086322;23;20299;-84
2020/12/30 05:24:24;;;;;;;2.60;2.30;;;16.80;49.60;;;;;;6063132;23;20176;-83
2020/12/30 05:27:06;;;;;;;2.53;2.30;;;16.90;49.40;;;;;;6062792;23;20145;-83
2020/12/30 05:30:01;;;;;;;3.28;2.88;;;16.90;49.50;;;;;;6064864;23;20125;-84
2020/12/30 05:32:53;;;;;;;2.80;2.55;;;16.90;49.60;;;;;;6059195;23;20454;-84
2020/12/30 05:35:52;;;;;;;2.75;2.47;;;16.90;49.40;;;;;;6085597;23;20573;-83
2020/12/30 05:38:45;;;;;;;3.45;2.83;;;16.90;49.30;;;;;;6112085;23;20157;-83
2020/12/30 05:45:00;;;;;;;2.90;2.60;;;16.80;49.30;;;;;;6111907;23;20220;-84
2020/12/30 05:47:33;;;;;;;2.95;2.55;;;16.80;49.30;;;;;;6062230;23;20145;-84
2020/12/30 05:50:22;;;;;;;2.22;2.03;;;16.80;49.40;;;;;;6086468;23;20203;-84
2020/12/30 05:56:54;;;;;;;2.58;2.38;;;16.90;49.40;;;;;;5980599;24;20615;-83
2020/12/30 05:59:38;;;;;;;2.75;2.10;;;16.80;49.40;;;;;;5956993;24;20152;-83
2020/12/30 06:02:28;;;;;;;2.50;2.20;;;16.90;49.20;;;;;;5973110;24;20163;-83
2020/12/30 06:05:28;;;;;;;2.95;2.30;;;16.90;49.20;;;;;;5972528;24;20147;-83
2020/12/30 06:08:13;;;;;;;2.90;2.40;;;16.90;49.00;;;;;;5972858;24;20151;-83
2020/12/30 06:11:01;;;;;;;2.60;2.40;;;17.00;49.10;;;;;;5971921;24;20180;-84
2020/12/30 06:14:19;;;;;;;2.60;2.40;;;16.90;49.10;;;;;;5972228;24;20140;-84
2020/12/30 06:20:51;;;;;;;2.88;2.15;;;16.90;49.00;;;;;;5995159;24;20172;-84
2020/12/30 06:30:21;;;;;;;2.67;2.20;;;16.90;49.00;;;;;;6078557;23;20175;-84
2020/12/30 06:32:59;;;;;;;2.75;2.35;;;16.90;48.80;;;;;;6118830;23;20143;-83
2020/12/30 06:35:58;;;;;;;2.30;2.10;;;17.00;48.70;;;;;;6118669;23;20147;-84
2020/12/30 06:38:59;;;;;;;2.38;2.13;;;17.00;48.50;;;;;;6093726;23;20159;-83
2020/12/30 06:45:38;;;;;;;2.38;2.17;;;17.00;48.70;;;;;;6054541;23;20217;-84
2020/12/30 06:49:16;;;;;;;;;;;;;;;;;;;;;
2020/12/30 06:52:26;;;;;;;2.05;1.85;;;16.90;48.70;;;;;;5984125;23;20205;-83
2020/12/30 06:55:42;;;;;;;2.40;1.98;;;16.90;48.80;;;;;;5942178;24;20172;-83
2020/12/30 07:02:38;;;;;;;2.20;2.00;;;16.90;48.80;;;;;;5914944;24;20157;-85
2020/12/30 07:38:55;;;;;;;2.25;2.05;;;17.00;48.40;;;;;;6088406;23;20635;-83
2020/12/30 07:45:29;;;;;;;2.20;2.00;;;17.00;48.30;;;;;;5940449;24;20175;-83
2020/12/30 07:47:55;;;;;;;2.15;1.90;;;17.10;48.10;;;;;;5917151;24;20172;-83
2020/12/30 07:50:21;;;;;;;2.05;1.83;;;17.00;48.20;;;;;;5923086;24;20188;-83
2020/12/30 07:52:56;;;;;;;2.17;2.00;;;17.10;48.10;;;;;;5894792;24;20168;-83
2020/12/30 07:56:23;;;;;;;;;;;;;;;;;;;;;
2020/12/30 08:05:55;;;;;;;2.13;1.80;;;17.00;48.30;;;;;;5912579;24;20217;-83
2020/12/30 08:08:54;;;;;;;1.88;1.75;;;16.90;48.30;;;;;;5889916;24;20252;-83
2020/12/30 08:11:55;;;;;;;2.08;1.88;;;16.90;48.10;;;;;;5913190;24;20142;-83
2020/12/30 08:17:57;;;;;;;1.90;1.70;;;17.00;48.30;;;;;;5912495;24;20165;-83
2020/12/30 08:24:10;;;;;;;1.58;1.48;;;17.10;47.80;;;;;;5935402;24;20237;-82
2020/12/30 08:40:03;;;;;;;1.70;1.48;;;17.10;47.80;;;;;;5979707;23;20507;-81
2020/12/30 08:42:50;;;;;;;1.80;1.70;;;17.00;47.90;;;;;;6010526;23;20171;-81
2020/12/30 08:45:15;;;;;;;1.63;1.52;;;17.00;48.00;;;;;;6010628;23;20157;-81
2020/12/30 08:47:42;;;;;;;1.80;1.60;;;17.00;48.00;;;;;;5987793;23;20139;-81
2020/12/30 08:50:08;;;;;;;2.00;1.80;;;17.00;48.00;;;;;;6017754;23;20281;-81
2020/12/30 08:52:42;;;;;;;1.60;1.50;;;17.00;48.10;;;;;;6016301;23;20138;-80
2020/12/30 08:55:09;;;;;;;1.63;1.52;;;16.90;48.10;;;;;;6070791;23;20155;-80
2020/12/30 08:57:35;;;;;;;3.33;1.60;;;16.90;48.10;;;;;;6081353;23;20623;-81
2020/12/30 09:00:14;;;;;;;1.77;1.58;;;16.90;48.00;;;;;;6107638;23;20162;-81
2020/12/30 09:02:40;;;;;;;1.70;1.60;;;16.90;48.10;;;;;;6081151;23;20183;-81
2020/12/30 09:05:08;;;;;;;1.92;1.73;;;16.90;48.10;;;;;;6056148;23;20592;-81
2020/12/30 09:07:36;;;;;;;1.90;1.70;;;16.90;48.10;;;;;;6082717;23;20140;-81
2020/12/30 09:10:09;;;;;;;2.10;1.90;;;16.90;48.00;;;;;;6103803;23;20148;-81
2020/12/30 09:12:42;;;;;;;2.10;1.80;;;16.90;48.00;;;;;;6129677;23;20147;-81
2020/12/30 09:15:15;;;;;;;1.85;1.75;;;16.90;48.00;;;;;;6104796;23;20149;-82
2020/12/30 09:17:41;;;;;;;1.70;1.52;;;16.90;48.00;;;;;;6080357;23;20235;-81
2020/12/30 09:20:15;;;;;;;2.08;1.70;;;16.90;48.10;;;;;;6103965;23;20472;-81
2020/12/30 09:22:43;;;;;;;2.08;1.88;;;17.00;47.70;;;;;;6079092;23;20172;-81
2020/12/30 09:25:29;;;;;;;1.77;1.65;;;17.10;47.70;;;;;;6104005;23;20212;-81
2020/12/30 09:27:55;;;;;;;1.70;1.50;;;17.10;47.60;;;;;;6104822;23;20136;-81
2020/12/30 09:30:25;;;;;;;1.63;1.50;;;17.10;48.30;;;;;;6080719;23;20557;-81
2020/12/30 09:32:51;;;;;;;2.63;1.65;;;17.10;47.50;;;;;;6081894;23;20620;-81
2020/12/30 09:35:18;;;;;;;1.65;1.38;;;17.10;47.70;;;;;;6079884;23;20147;-81
2020/12/30 09:37:54;;;;;;;1.77;1.67;;;17.10;47.40;;;;;;6104238;23;20132;-81
2020/12/30 09:40:20;;;;;;;1.92;1.80;;;17.20;47.30;;;;;;6056919;23;20140;-81
2020/12/30 09:42:46;;;;;;;1.60;1.50;;;17.10;47.50;;;;;;6080495;23;20622;-81
2020/12/30 09:45:16;;;;;;;1.65;1.50;;;17.20;47.50;;;;;;6080009;23;20152;-81
2020/12/30 09:47:42;;;;;;;1.40;1.30;;;17.20;47.50;;;;;;6081189;23;20128;-81
2020/12/30 09:50:13;;;;;;;1.40;1.30;;;17.10;47.40;;;;;;6050606;23;20495;-81
2020/12/30 09:52:42;;;;;;;1.73;1.63;;;17.20;47.50;;;;;;6052177;23;20220;-81
2020/12/30 09:55:22;;;;;;;1.90;1.70;;;17.10;47.60;;;;;;6101814;23;20145;-81
2020/12/30 09:57:48;;;;;;;1.60;1.50;;;17.00;47.60;;;;;;6101062;23;20133;-81
2020/12/30 10:00:15;;;;;;;1.73;1.60;;;17.00;47.60;;;;;;6101802;23;20215;-81
2020/12/30 10:02:44;;;;;;;1.63;1.52;;;17.00;47.60;;;;;;6100618;23;20168;-81
2020/12/30 10:05:10;;;;;;;1.70;1.60;;;17.00;47.70;;;;;;6099615;23;20137;-81
2020/12/30 10:07:35;;;;;;;1.67;1.48;;;17.10;47.50;;;;;;6102827;23;20157;-81
2020/12/30 10:10:01;;;;;;;1.88;1.60;;;17.10;47.60;;;;;;6101647;23;20550;-81
2020/12/30 10:12:27;;;;;;;1.50;1.40;;;17.00;47.70;;;;;;6102262;23;20137;-81
2020/12/30 10:14:52;;;;;;;1.60;1.50;;;17.00;47.60;;;;;;6100588;23;20141;-81
2020/12/30 10:17:18;;;;;;;1.88;1.38;;;17.10;47.60;;;;;;6102349;23;20137;-81
2020/12/30 10:19:44;;;;;;;2.15;1.40;;;17.20;47.30;;;;;;6076035;23;20489;-81
2020/12/30 10:22:10;;;;;;;2.72;1.50;;;17.20;47.20;;;;;;6101621;23;20144;-81
2020/12/30 10:24:36;;;;;;;2.22;1.63;;;17.20;47.20;;;;;;6101626;23;20144;-81
2020/12/30 10:27:02;;;;;;;1.92;1.60;;;17.10;47.20;;;;;;6102369;23;20137;-81
2020/12/30 10:29:30;;;;;;;1.40;1.30;;;17.20;47.10;;;;;;6078702;23;20137;-82
2020/12/30 10:31:59;;;;;;;1.50;1.40;;;17.20;47.30;;;;;;6102770;23;20137;-81
2020/12/30 10:34:25;;;;;;;1.63;1.35;;;17.10;47.50;;;;;;6079634;23;20177;-81
2020/12/30 10:36:51;;;;;;;2.92;1.38;;;17.10;47.50;;;;;;6102768;23;20140;-80
2020/12/30 10:39:17;;;;;;;1.77;1.40;;;17.10;47.50;;;;;;6102399;23;20137;-81
2020/12/30 10:41:55;;;;;;;2.25;1.55;;;17.10;47.50;;;;;;6080239;23;20492;-81
2020/12/30 10:44:21;;;;;;;2.47;1.70;;;17.10;47.60;;;;;;6102966;23;20236;-81
2020/12/30 10:46:47;;;;;;;2.70;1.42;;;17.00;47.70;;;;;;6077695;23;20164;-81
2020/12/30 10:49:13;;;;;;;1.30;1.20;;;17.00;47.70;;;;;;6076012;23;20153;-81
2020/12/30 10:51:47;;;;;;;1.63;1.52;;;17.10;47.50;;;;;;6101775;23;20180;-81
2020/12/30 10:54:28;;;;;;;2.58;1.20;;;17.20;47.40;;;;;;6104771;23;20141;-81
2020/12/30 10:56:55;;;;;;;1.45;1.35;;;17.30;47.10;;;;;;6104893;23;20196;-80
2020/12/30 10:59:22;;;;;;;1.30;1.20;;;17.30;47.00;;;;;;6106008;23;20133;-82
2020/12/30 11:01:53;;;;;;;1.30;1.20;;;17.30;47.00;;;;;;6106694;23;20159;-81
2020/12/30 11:04:20;;;;;;;2.08;1.30;;;17.30;47.10;;;;;;6104135;23;20176;-81
2020/12/30 11:06:48;;;;;;;1.40;1.30;;;17.20;47.20;;;;;;6107257;23;20133;-79
2020/12/30 11:09:32;;;;;;;1.55;1.42;;;17.20;47.50;;;;;;6105557;23;20160;-81
2020/12/30 11:11:58;;;;;;;1.38;1.27;;;17.20;47.50;;;;;;6086660;23;20145;-80
2020/12/30 11:14:28;;;;;;;1.42;1.33;;;17.20;47.30;;;;;;6086861;23;20580;-81
2020/12/30 11:16:59;;;;;;;1.30;1.20;;;17.20;47.30;;;;;;6083207;23;20157;-80
2020/12/30 11:19:35;;;;;;;1.48;1.10;;;17.30;47.20;;;;;;6084401;23;20157;-81
2020/12/30 11:22:22;;;;;;;3.30;1.45;;;17.30;47.10;;;;;;6080921;23;20644;-81
2020/12/30 11:24:49;;;;;;;1.70;1.50;;;17.30;47.20;;;;;;6036814;23;20161;-80
2020/12/30 11:27:16;;;;;;;2.95;1.50;;;17.20;47.40;;;;;;6082699;23;20175;-81
2020/12/30 11:29:48;;;;;;;2.65;1.30;;;17.20;47.40;;;;;;6084832;23;20145;-81
2020/12/30 11:32:22;;;;;;;2.72;1.30;;;17.30;47.30;;;;;;6106555;23;20140;-81
2020/12/30 11:34:52;;;;;;;1.60;1.40;;;17.30;47.10;;;;;;6109325;23;20153;-81
2020/12/30 11:37:20;;;;;;;1.48;1.38;;;17.20;47.30;;;;;;6110049;23;20133;-81
2020/12/30 11:40:04;;;;;;;;;;;;;;;;;;;;;
2020/12/30 11:45:46;;;;;;;2.03;1.20;;;17.20;47.30;;;;;;6080377;23;20178;-81
2020/12/30 11:49:18;;;;;;;6.55;1.58;;;17.30;47.10;;;;;;6080452;23;20153;-81
2020/12/30 11:51:45;;;;;;;4.03;1.30;;;17.20;47.10;;;;;;5980039;23;20191;-82
2020/12/30 11:54:19;;;;;;;5.60;1.70;;;17.20;47.20;;;;;;5971476;24;20179;-81
2020/12/30 11:56:47;;;;;;;4.22;1.33;;;17.20;47.30;;;;;;5948534;24;20182;-81
2020/12/30 11:59:14;;;;;;;4.57;1.30;;;17.20;47.30;;;;;;5947072;24;20143;-80
2020/12/30 12:01:45;;;;;;;1.90;1.33;;;17.20;47.30;;;;;;5944040;24;20189;-81
2020/12/30 12:04:21;;;;;;;2.47;1.42;;;17.20;47.30;;;;;;5971442;24;20191;-80
2020/12/30 12:07:07;;;;;;;3.22;1.10;;;17.30;47.10;;;;;;5949139;24;20616;-80
2020/12/30 12:09:33;;;;;;;2.15;1.10;;;17.20;47.30;;;;;;5952145;24;20162;-80
2020/12/30 12:12:02;;;;;;;1.35;1.23;;;17.20;47.20;;;;;;5948654;24;20143;-80
2020/12/30 12:14:29;;;;;;;1.70;1.10;;;17.20;47.10;;;;;;5949320;24;20151;-81
2020/12/30 12:17:43;;;;;;;1.42;1.15;;;17.30;47.00;;;;;;5948262;24;20178;-81
2020/12/30 12:21:07;;;;;;;;;;;;;;;;;;;;;
2020/12/30 12:23:49;;;;;;;3.00;1.33;;;17.30;47.00;;;;;;6010235;23;20667;-80
2020/12/30 12:26:53;;;;;;;3.45;1.25;;;17.20;47.10;;;;;;5998697;23;20182;-81
2020/12/30 12:29:43;;;;;;;2.10;1.23;;;17.20;47.10;;;;;;6021823;23;20155;-81
2020/12/30 12:35:59;;;;;;;1.70;0.95;;;17.20;47.20;;;;;;6022428;23;20161;-83
2020/12/30 12:38:30;;;;;;;1.10;1.00;;;17.30;47.10;;;;;;6024065;23;20147;-82
2020/12/30 12:41:05;;;;;;;3.33;1.25;;;17.30;47.00;;;;;;5998141;23;20211;-81
2020/12/30 12:43:40;;;;;;;4.10;1.30;;;17.30;46.80;;;;;;6001244;23;20175;-81
2020/12/30 12:46:13;;;;;;;2.88;1.50;;;17.30;47.10;;;;;;5997907;23;20244;-80
2020/12/30 12:48:48;;;;;;;1.58;1.20;;;17.30;46.90;;;;;;5999234;23;20202;-82
2020/12/30 12:51:14;;;;;;;2.28;1.17;;;17.30;47.10;;;;;;6014402;23;20349;-82
2020/12/30 12:54:05;;;;;;;1.55;1.27;;;17.30;47.10;;;;;;6003631;23;20193;-82
2020/12/30 12:56:59;;;;;;;2.30;1.17;;;17.30;47.20;;;;;;6027187;23;20151;-81
2020/12/30 12:59:28;;;;;;;2.63;1.25;;;17.30;46.90;;;;;;6031062;23;20168;-81
2020/12/30 13:02:03;;;;;;;1.67;1.10;;;17.30;47.00;;;;;;6091919;23;20140;-81
2020/12/30 13:04:38;;;;;;;1.50;1.05;;;17.30;47.10;;;;;;6115502;23;20187;-79
2020/12/30 13:07:13;;;;;;;1.00;0.90;;;17.20;47.10;;;;;;6090595;23;20152;-79
2020/12/30 13:09:41;;;;;;;1.17;1.08;;;17.30;46.90;;;;;;6115035;23;20226;-79
2020/12/30 13:12:26;;;;;;;1.25;0.95;;;17.30;47.00;;;;;;6091144;23;20147;-81
2020/12/30 13:14:54;;;;;;;2.95;1.30;;;17.30;46.80;;;;;;6070964;23;20315;-81
2020/12/30 13:17:24;;;;;;;1.27;1.17;;;17.30;46.70;;;;;;6089875;23;20207;-82
2020/12/30 13:19:59;;;;;;;2.60;1.00;;;17.40;46.60;;;;;;6112940;23;20199;-80
2020/12/30 13:22:43;;;;;;;2.55;1.00;;;17.40;46.50;;;;;;6091404;23;20152;-80
2020/12/30 13:25:37;;;;;;;4.03;1.20;;;17.40;47.10;;;;;;6117686;23;20140;-81
2020/12/30 13:28:04;;;;;;;1.00;0.90;;;17.50;46.50;;;;;;6116955;23;20135;-79
2020/12/30 13:30:30;;;;;;;2.67;1.30;;;17.50;46.40;;;;;;6090776;23;20155;-81
2020/12/30 13:32:57;;;;;;;2.65;1.30;;;17.40;46.70;;;;;;6066570;23;20171;-81
2020/12/30 13:35:31;;;;;;;1.70;1.20;;;17.40;46.50;;;;;;6140897;23;20144;-82
2020/12/30 13:38:01;;;;;;;1.20;0.93;;;17.50;46.30;;;;;;6139254;23;20178;-81
2020/12/30 13:40:53;;;;;;;1.30;1.13;;;17.50;46.30;;;;;;6114252;23;20148;-81
2020/12/30 13:43:19;;;;;;;1.20;1.10;;;17.50;46.40;;;;;;6114642;23;20172;-81
2020/12/30 13:45:53;;;;;;;1.40;1.20;;;17.40;46.50;;;;;;6114401;23;20203;-80
2020/12/30 13:49:13;;;;;;;;;;;;;;;;;;;;;
2020/12/30 13:52:07;;;;;;;3.90;1.10;;;17.40;46.60;;;;;;6138295;23;20259;-81
2020/12/30 13:54:41;;;;;;;1.38;1.10;;;17.50;46.60;;;;;;6115064;23;20156;-81
2020/12/30 13:57:08;;;;;;;1.17;1.00;;;17.40;46.50;;;;;;6114581;23;20152;-81
2020/12/30 13:59:35;;;;;;;1.20;1.10;;;17.50;46.50;;;;;;6066079;23;20654;-80
2020/12/30 14:02:03;;;;;;;1.10;1.00;;;17.50;46.50;;;;;;6114068;23;20167;-80
2020/12/30 14:04:52;;;;;;;1.90;1.00;;;17.50;46.50;;;;;;6140634;23;20196;-81
2020/12/30 14:07:29;;;;;;;1.15;0.90;;;17.50;47.10;;;;;;6115460;23;20154;-81
2020/12/30 14:10:13;;;;;;;4.05;1.25;;;17.50;46.50;;;;;;6090875;23;20132;-81
2020/12/30 14:12:44;;;;;;;1.10;0.90;;;17.50;46.50;;;;;;6066790;23;20152;-81
2020/12/30 14:15:15;;;;;;;1.50;1.10;;;17.50;46.60;;;;;;6068115;23;20170;-83
2020/12/30 14:17:53;;;;;;;1.08;0.90;;;17.50;46.60;;;;;;6090573;23;20163;-81
2020/12/30 14:20:26;;;;;;;2.00;0.98;;;17.50;46.60;;;;;;6090423;23;20148;-80
2020/12/30 14:22:57;;;;;;;1.42;0.95;;;17.40;46.50;;;;;;6089779;23;20659;-80
2020/12/30 14:25:24;;;;;;;1.58;0.82;;;17.50;46.60;;;;;;6089389;23;20148;-80
2020/12/30 14:27:51;;;;;;;0.98;0.90;;;17.50;46.50;;;;;;6113711;23;20168;-80
2020/12/30 14:30:17;;;;;;;1.48;0.90;;;17.50;46.50;;;;;;6140153;23;20154;-81
2020/12/30 14:32:45;;;;;;;0.90;0.90;;;17.50;46.60;;;;;;6114324;23;20140;-80
2020/12/30 14:35:11;;;;;;;1.38;0.85;;;17.50;46.50;;;;;;6139687;23;20133;-80
2020/12/30 14:37:37;;;;;;;3.42;0.82;;;17.50;46.50;;;;;;6114390;23;20222;-80
2020/12/30 14:40:09;;;;;;;1.20;1.10;;;17.50;46.30;;;;;;6090327;23;20172;-81
2020/12/30 14:42:35;;;;;;;1.27;0.90;;;17.40;46.30;;;;;;6113926;23;20172;-80
2020/12/30 14:45:02;;;;;;;1.63;0.98;;;17.60;46.20;;;;;;6115436;23;20156;-80
2020/12/30 14:47:29;;;;;;;1.88;1.10;;;17.50;46.30;;;;;;6092236;23;20595;-81
2020/12/30 14:49:56;;;;;;;1.25;0.90;;;17.50;46.40;;;;;;6117344;23;20144;-80
2020/12/30 14:52:22;;;;;;;1.40;1.13;;;17.50;46.40;;;;;;6112439;23;20188;-80
2020/12/30 14:54:53;;;;;;;0.75;0.75;;;17.50;46.20;;;;;;6063283;23;20524;-82
2020/12/30 14:57:19;;;;;;;0.98;0.88;;;17.60;46.20;;;;;;6110299;23;20167;-81
2020/12/30 14:59:46;;;;;;;1.25;1.05;;;17.50;46.10;;;;;;6109134;23;20695;-81
2020/12/30 15:02:20;;;;;;;1.45;1.10;;;17.60;46.00;;;;;;6085944;23;20148;-82
2020/12/30 15:04:47;;;;;;;1.15;1.05;;;17.60;46.10;;;;;;6087072;23;20156;-80
2020/12/30 15:07:17;;;;;;;1.20;0.75;;;17.70;46.00;;;;;;6088504;23;20147;-80
2020/12/30 15:09:43;;;;;;;1.10;1.00;;;17.70;45.80;;;;;;6088473;23;20144;-81
2020/12/30 15:12:11;;;;;;;0.98;0.88;;;17.70;45.80;;;;;;6112776;23;20271;-80
2020/12/30 15:14:39;;;;;;;1.52;1.10;;;17.70;46.00;;;;;;6088244;23;20141;-80
2020/12/30 15:17:07;;;;;;;0.93;0.80;;;17.60;45.80;;;;;;6088877;23;20144;-81
2020/12/30 15:19:33;;;;;;;1.00;0.80;;;17.60;45.80;;;;;;6087900;23;20149;-80
2020/12/30 15:21:59;;;;;;;1.08;0.98;;;17.70;45.70;;;;;;6111546;23;20577;-80
2020/12/30 15:24:30;;;;;;;0.85;0.85;;;17.60;45.70;;;;;;6113091;23;20165;-81
2020/12/30 15:27:04;;;;;;;1.00;0.90;;;17.50;46.00;;;;;;6112077;23;20188;-80
2020/12/30 15:29:30;;;;;;;1.17;0.95;;;17.50;46.20;;;;;;6112738;23;20140;-80
2020/12/30 15:32:01;;;;;;;0.90;0.80;;;17.50;46.10;;;;;;6113358;23;20149;-80
2020/12/30 16:13:34;;;;;;;1.20;1.05;;;17.50;45.60;;;;;;6136910;23;20555;-82
2020/12/30 16:19:26;;;;;;;1.10;1.00;;;17.50;45.70;;;;;;6142917;23;20136;-82
2020/12/30 16:52:51;;;;;;;1.65;1.20;;;17.30;46.10;;;;;;6141545;23;20136;-83
2020/12/30 17:06:19;;;;;;;1.77;0.90;;;17.40;45.90;;;;;;6141737;23;20527;-83
2020/12/30 17:13:02;;;;;;;1.40;1.30;;;17.40;45.90;;;;;;6023610;23;20160;-83
2020/12/30 17:16:23;;;;;;;2.17;1.25;;;17.40;45.70;;;;;;6022087;23;20670;-83
2020/12/30 17:19:18;;;;;;;1.70;1.60;;;17.50;45.60;;;;;;6022701;23;20202;-83